WetterOnline ( https://www.wetteronline.de )

Wetter aktuell List

Aktuelles Wetter: List/Sylt (29m)

6-stündlich | Neueste Meldungen
Ortszeit Temperatur Wetter
Mo, 04.07. 8:00 16.6° C wolkig
Mo, 04.07. 2:00 15.7° C wolkig
So, 03.07. 20:00 17.5° C bedeckt
So, 03.07. 14:00 19.4° C bedeckt
So, 03.07. 8:00 19.0° C fast wolkenlos
So, 03.07. 2:00 18.1° C bewölkt
Sa, 02.07. 20:00 19.1° C bewölkt
Sa, 02.07. 14:00 18.6° C wolkig
Ortszeit Temperatur Wetter
Mo, 04.07. 8:30 16.9° C wolkig
Mo, 04.07. 8:20 16.9° C wolkig
Mo, 04.07. 8:10 16.9° C leichter Regen
Mo, 04.07. 8:00 16.6° C wolkig
Mo, 04.07. 7:50 16.6° C wolkig
Mo, 04.07. 7:40 16.7° C bewölkt
Mo, 04.07. 7:30 16.6° C leicht bewölkt
Mo, 04.07. 7:00 16.3° C wolkenlos
Mo, 04.07. 6:30 15.8° C wolkenlos
Mo, 04.07. 6:00 15.7° C leicht bewölkt
Mo, 04.07. 5:30 15.5° C leicht bewölkt
Ortszeit Relative Feuchte Sichtweite
Mo, 04.07. 8:00 77% 45 km
Mo, 04.07. 2:00 77% 55 km
So, 03.07. 20:00 77% 50 km
So, 03.07. 14:00 75% 50 km
So, 03.07. 8:00 83% 45 km
So, 03.07. 2:00 66% 65 km
Sa, 02.07. 20:00 57% 45 km
Sa, 02.07. 14:00 71% 40 km
Ortszeit Relative Feuchte Sichtweite
Mo, 04.07. 8:30 77% 55 km
Mo, 04.07. 8:20 77% -
Mo, 04.07. 8:10 76% -
Mo, 04.07. 8:00 77% 45 km
Mo, 04.07. 7:50 77% -
Mo, 04.07. 7:40 75% -
Mo, 04.07. 7:30 77% 40 km
Mo, 04.07. 7:00 75% 60 km
Mo, 04.07. 6:30 78% 50 km
Mo, 04.07. 6:00 77% 55 km
Mo, 04.07. 5:30 80% 55 km
Ortszeit Niederschlagsmenge Niederschlagsart
Mo, 04.07. 8:00 0.1 l/m2 in 12 Std. Regen
Mo, 04.07. 2:00 0.0 l/m2 in 6 Std. -
So, 03.07. 20:00 0.1 l/m2 in 12 Std. Regen
So, 03.07. 14:00 0.0 l/m2 in 6 Std. -
So, 03.07. 8:00 0.1 l/m2 in 12 Std. Regen
So, 03.07. 2:00 0.0 l/m2 in 6 Std. -
Sa, 02.07. 20:00 0.0 l/m2 in 12 Std. -
Sa, 02.07. 14:00 0.0 l/m2 in 6 Std. -
Ortszeit Niederschlagsmenge Niederschlagsart
Mo, 04.07. 8:30 0.1 l/m2 in 1 Std. Schneeregen
Mo, 04.07. 8:20 keine Meldung -
Mo, 04.07. 8:10 keine Meldung -
Mo, 04.07. 8:00 0.0 l/m2 in 1 Std. Regen
Mo, 04.07. 7:50 keine Meldung -
Mo, 04.07. 7:40 keine Meldung -
Mo, 04.07. 7:30 0.0 l/m2 in 1 Std. -
Mo, 04.07. 7:00 0.0 l/m2 in 1 Std. -
Mo, 04.07. 6:30 0.0 l/m2 in 1 Std. -
Mo, 04.07. 6:00 0.0 l/m2 in 1 Std. -
Mo, 04.07. 5:30 0.0 l/m2 in 1 Std. -
Ortszeit Stärke Spitze Richtung
km/h Bft. km/h Grad Sektor
Mo, 04.07. 8:00 26 4 39 250° W
Mo, 04.07. 2:00 22 4 32 280° W
So, 03.07. 20:00 14 3 29 300° NW
So, 03.07. 14:00 13 3 30 290° W
So, 03.07. 8:00 14 3 32 130° SO
So, 03.07. 2:00 24 4 31 120° SO
Sa, 02.07. 20:00 14 3 50 220° SW
Sa, 02.07. 14:00 35 5 50 220° SW
Ortszeit Stärke Spitze Richtung
km/h Bft. km/h Grad Sektor
Mo, 04.07. 8:30 25 4 40 250° W
Mo, 04.07. 8:20 25 4 - 250° W
Mo, 04.07. 8:10 28 4 - 250° W
Mo, 04.07. 8:00 26 4 39 250° W
Mo, 04.07. 7:50 26 4 - 250° W
Mo, 04.07. 7:40 26 4 - 250° W
Mo, 04.07. 7:30 22 4 32 260° W
Mo, 04.07. 7:00 22 4 36 250° W
Mo, 04.07. 6:30 26 4 37 270° W
Mo, 04.07. 6:00 24 4 39 260° W
Mo, 04.07. 5:30 19 3 31 260° W
Ortszeit Untergrenze Bedeckung Gattung
total tief tief mittel hoch
Mo, 04.07. 8:00 540 m 7/8 1/8 - - -
Mo, 04.07. 2:00 600 m 5/8 5/8 - - -
So, 03.07. 20:00 6000 m 8/8 8/8 - - -
So, 03.07. 14:00 2400 m 8/8 8/8 - - -
So, 03.07. 8:00 3900 m 1/8 1/8 - - -
So, 03.07. 2:00 2100 m 8/8 5/8 - - -
Sa, 02.07. 20:00 2100 m 8/8 4/8 - - -
Sa, 02.07. 14:00 690 m 7/8 5/8 - - -
Ortszeit Bedeckungsgrad in Achtel und Wolkenuntergrenze
Mo, 04.07. 8:30 3(780m) 7(8100m) 7(9000m)
Mo, 04.07. 8:20 3(780m) 7(8100m) 7(9000m)
Mo, 04.07. 8:10 7
Mo, 04.07. 8:00 1(540m) 7(3000m)
Mo, 04.07. 7:50 1(540m) 2(840m) 7(3000m)
Mo, 04.07. 7:40 7
Mo, 04.07. 7:30 1(570m)
Mo, 04.07. 7:00 keine Wolken
Mo, 04.07. 6:30 keine Wolken
Mo, 04.07. 6:00 2(540m) 3(720m)
Mo, 04.07. 5:30 2(570m)
Ortszeit Luftdruck NN (hPa) Tendenz (hPa in 3 Std.)
Mo, 04.07. 8:00 1016 + 0,1
Mo, 04.07. 2:00 1017 + 0,1
So, 03.07. 20:00 1016 - 0,4
So, 03.07. 14:00 1017 + 0,5
So, 03.07. 8:00 1016 - 0,5
So, 03.07. 2:00 1018 - 1,1
Sa, 02.07. 20:00 1020 - 0,6
Sa, 02.07. 14:00 1021 + 0,2
Ortszeit Luftdruck NN (hPa) Tendenz (hPa in 3 Std.)
Mo, 04.07. 8:30 1017 + 0,2
Mo, 04.07. 8:20 1017 keine Meldung
Mo, 04.07. 8:10 1016 keine Meldung
Mo, 04.07. 8:00 1016 + 0,1
Mo, 04.07. 7:50 1016 keine Meldung
Mo, 04.07. 7:40 1016 keine Meldung
Mo, 04.07. 7:30 1016 + 0,1
Mo, 04.07. 7:00 1016 + 0,1
Mo, 04.07. 6:30 1016 - 0,1
Mo, 04.07. 6:00 1016 0,0
Mo, 04.07. 5:30 1016 - 0,2
Ortszeit Schneehöhe (cm)
Mo, 04.07. 8:00 0
Mo, 04.07. 2:00 0
So, 03.07. 20:00 0
So, 03.07. 14:00 0
So, 03.07. 8:00 0
So, 03.07. 2:00 0
Sa, 02.07. 20:00 0
Sa, 02.07. 14:00 0
Ortszeit Schneehöhe (cm)
Mo, 04.07. 8:30 0
Mo, 04.07. 8:20 0
Mo, 04.07. 8:10 0
Mo, 04.07. 8:00 0
Mo, 04.07. 7:50 0
Mo, 04.07. 7:40 0
Mo, 04.07. 7:30 0
Mo, 04.07. 7:00 0
Mo, 04.07. 6:30 0
Mo, 04.07. 6:00 0
Mo, 04.07. 5:30 0
Link zu dieser Seite / Seite empfehlen

Das Wetter in ...